Time,TemperatureF,DewpointF,PressureIn,WindDirection,WindDirectionDegrees,WindSpeedMPH,WindSpeedGustMPH,Humidity,HourlyPrecipIn,Conditions,Clouds,dailyrainin,SoftwareType,DateUTC
2013-10-13 00:01:00,54.0,49.9,30.23,WSW,238,1.1,1.1,86,0.00,CLR,,0.00,WeatherDisplay:10.37,2013-10-13 04:01:00,
2013-10-13 00:02:00,53.9,49.8,30.24,WSW,239,2.3,2.3,86,0.00,CLR,,0.00,WeatherDisplay:10.37,2013-10-13 04:02:00,
2013-10-13 00:07:00,53.7,49.9,30.24,WSW,242,1.1,1.1,87,0.00,CLR,,0.00,WeatherDisplay:10.37,2013-10-13 04:07:00,
2013-10-13 00:08:00,53.6,49.8,30.24,WSW,243,1.1,1.1,87,0.00,CLR,,0.00,WeatherDisplay:10.37,2013-10-13 04:08:00,
2013-10-13 00:13:00,53.5,49.7,30.24,WSW,240,0.0,0.6,87,0.00,CLR,,0.00,WeatherDisplay:10.37,2013-10-13 04:13:00,
2013-10-13 00:18:00,53.3,49.5,30.24,WSW,238,1.1,0.0,87,0.00,CLR,,0.00,WeatherDisplay:10.37,2013-10-13 04:18:00,
2013-10-13 00:23:00,53.0,49.5,30.24,WNW,291,1.0,0.0,88,0.00,CLR,,0.00,WeatherDisplay:10.37,2013-10-13 04:23:00,
2013-10-13 00:28:00,52.7,49.5,30.24,WSW,245,1.1,1.1,89,0.00,CLR,,0.00,WeatherDisplay:10.37,2013-10-13 04:28:00,
2013-10-13 00:33:00,52.6,49.4,30.24,West,261,1.1,0.0,89,0.00,CLR,,0.00,WeatherDisplay:10.37,2013-10-13 04:33:00,
2013-10-13 00:38:00,52.7,49.5,30.24,SW,231,1.1,1.1,89,0.00,CLR,,0.00,WeatherDisplay:10.37,2013-10-13 04:38:00,
2013-10-13 00:43:00,52.7,49.5,30.25,WSW,253,3.5,3.5,89,0.00,CLR,,0.00,WeatherDisplay:10.37,2013-10-13 04:43:00,
2013-10-13 00:48:00,52.8,49.6,30.24,South,185,1.1,0.0,89,0.00,CLR,,0.00,WeatherDisplay:10.37,2013-10-13 04:48:00,
2013-10-13 00:53:00,53.0,49.8,30.25,South,177,4.0,4.0,89,0.00,CLR,,0.00,WeatherDisplay:10.37,2013-10-13 04:53:00,
2013-10-13 00:58:00,53.2,49.7,30.24,SSE,148,3.5,3.5,88,0.00,CLR,,0.00,WeatherDisplay:10.37,2013-10-13 04:58:00,
2013-10-13 01:03:00,53.7,50.2,30.25,SSW,200,4.6,4.6,88,0.00,CLR,,0.00,WeatherDisplay:10.37,2013-10-13 05:03:00,
2013-10-13 01:08:00,53.8,50.0,30.25,South,175,2.3,2.3,87,0.00,CLR,,0.00,WeatherDisplay:10.37,2013-10-13 05:08:00,
2013-10-13 01:13:00,53.9,49.8,30.25,SSE,165,3.5,3.5,86,0.00,CLR,,0.00,WeatherDisplay:10.37,2013-10-13 05:13:00,
2013-10-13 01:18:00,53.7,49.9,30.25,SSE,165,3.5,3.5,87,0.00,CLR,,0.00,WeatherDisplay:10.37,2013-10-13 05:18:00,
2013-10-13 01:23:00,53.7,49.6,30.25,SSE,149,2.3,0.0,86,0.00,CLR,,0.00,WeatherDisplay:10.37,2013-10-13 05:23:00,
2013-10-13 01:28:00,53.6,49.8,30.25,SE,144,2.3,2.3,87,0.00,CLR,,0.00,WeatherDisplay:10.37,2013-10-13 05:28:00,
2013-10-13 01:33:00,53.5,49.7,30.25,South,184,0.0,0.0,87,0.00,CLR,,0.00,WeatherDisplay:10.37,2013-10-13 05:33:00,
2013-10-13 01:38:00,53.3,49.5,30.25,SSE,165,0.0,0.0,87,0.00,CLR,,0.00,WeatherDisplay:10.37,2013-10-13 05:38:00,
2013-10-13 01:43:00,52.9,49.4,30.25,SSE,165,0.0,0.0,88,0.00,CLR,,0.00,WeatherDisplay:10.37,2013-10-13 05:43:00,
2013-10-13 01:48:00,52.5,49.0,30.25,SSE,160,0.0,0.0,88,0.00,CLR,,0.00,WeatherDisplay:10.37,2013-10-13 05:48:00,
2013-10-13 01:53:00,52.2,49.1,30.25,SW,234,0.0,0.0,89,0.00,CLR,,0.00,WeatherDisplay:10.37,2013-10-13 05:53:00,
2013-10-13 01:58:00,52.1,49.3,30.25,SW,233,1.1,1.1,90,0.00,CLR,,0.00,WeatherDisplay:10.37,2013-10-13 05:58:00,
2013-10-13 02:03:00,51.9,49.1,30.25,SW,233,0.0,0.0,90,0.00,CLR,,0.00,WeatherDisplay:10.37,2013-10-13 06:03:00,
2013-10-13 02:08:00,51.6,48.8,30.25,South,185,1.1,1.1,90,0.00,CLR,,0.00,WeatherDisplay:10.37,2013-10-13 06:08:00,
2013-10-13 02:13:00,51.1,48.3,30.25,South,186,0.0,0.0,90,0.00,CLR,,0.00,WeatherDisplay:10.37,2013-10-13 06:13:00,
2013-10-13 02:18:00,50.8,48.3,30.25,SSE,149,2.3,2.3,91,0.00,CLR,,0.00,WeatherDisplay:10.37,2013-10-13 06:18:00,
2013-10-13 02:23:00,50.7,48.5,30.25,SE,134,1.1,0.0,92,0.00,CLR,,0.00,WeatherDisplay:10.37,2013-10-13 06:23:00,
2013-10-13 02:28:00,50.5,48.3,30.25,SSE,149,3.5,3.5,92,0.00,CLR,,0.00,WeatherDisplay:10.37,2013-10-13 06:28:00,
2013-10-13 02:33:00,50.7,48.5,30.25,SSW,199,0.0,0.0,92,0.00,CLR,,0.00,WeatherDisplay:10.37,2013-10-13 06:33:00,
2013-10-13 02:38:00,51.0,48.8,30.25,SE,136,2.3,2.3,92,0.00,CLR,,0.00,WeatherDisplay:10.37,2013-10-13 06:38:00,
2013-10-13 02:43:00,51.3,48.8,30.24,West,266,1.1,1.1,91,0.00,CLR,,0.00,WeatherDisplay:10.37,2013-10-13 06:43:00,
2013-10-13 02:48:00,51.3,48.8,30.25,WSW,249,1.1,1.1,91,0.00,CLR,,0.00,WeatherDisplay:10.37,2013-10-13 06:48:00,
2013-10-13 02:53:00,51.1,48.6,30.25,WSW,250,0.0,0.0,91,0.00,CLR,,0.00,WeatherDisplay:10.37,2013-10-13 06:53:00,
2013-10-13 02:58:00,50.8,48.3,30.24,WSW,250,0.0,0.0,91,0.00,CLR,,0.00,WeatherDisplay:10.37,2013-10-13 06:58:00,
2013-10-13 03:03:00,50.7,48.5,30.25,SE,145,1.1,0.0,92,0.00,CLR,,0.00,WeatherDisplay:10.37,2013-10-13 07:03:00,
2013-10-13 03:08:00,50.8,48.6,30.24,South,175,2.3,2.3,92,0.00,CLR,,0.00,WeatherDisplay:10.37,2013-10-13 07:08:00,
2013-10-13 03:13:00,51.4,48.9,30.24,SE,132,3.5,3.5,91,0.00,CLR,,0.00,WeatherDisplay:10.37,2013-10-13 07:13:00,
2013-10-13 03:18:00,51.7,48.9,30.24,SE,126,5.8,5.8,90,0.00,CLR,,0.00,WeatherDisplay:10.37,2013-10-13 07:18:00,
2013-10-13 03:23:00,51.8,48.7,30.24,ESE,107,3.5,3.5,89,0.00,CLR,,0.00,WeatherDisplay:10.37,2013-10-13 07:23:00,
2013-10-13 03:28:00,51.8,48.7,30.24,SE,124,3.5,3.5,89,0.00,CLR,,0.00,WeatherDisplay:10.37,2013-10-13 07:28:00,
2013-10-13 03:33:00,51.9,48.8,30.25,East,101,3.5,3.5,89,0.00,CLR,,0.00,WeatherDisplay:10.37,2013-10-13 07:33:00,
2013-10-13 03:38:00,51.7,48.6,30.25,ESE,122,2.3,2.3,89,0.00,CLR,,0.00,WeatherDisplay:10.37,2013-10-13 07:38:00,
2013-10-13 03:43:00,51.4,48.3,30.25,South,184,2.3,2.3,89,0.00,CLR,,0.00,WeatherDisplay:10.37,2013-10-13 07:43:00,
2013-10-13 03:48:00,51.3,48.2,30.25,ESE,122,4.6,4.6,89,0.00,CLR,,0.00,WeatherDisplay:10.37,2013-10-13 07:48:00,
2013-10-13 03:53:00,51.4,48.3,30.25,ESE,113,2.3,2.3,89,0.00,CLR,,0.00,WeatherDisplay:10.37,2013-10-13 07:53:00,
2013-10-13 03:58:00,51.5,48.4,30.25,ENE,69,3.5,3.5,89,0.00,CLR,,0.00,WeatherDisplay:10.37,2013-10-13 07:58:00,
2013-10-13 04:03:00,51.5,48.4,30.25,ESE,105,3.5,3.5,89,0.00,CLR,,0.00,WeatherDisplay:10.37,2013-10-13 08:03:00,
2013-10-13 04:08:00,51.6,48.5,30.25,SSE,160,4.6,4.6,89,0.00,CLR,,0.00,WeatherDisplay:10.37,2013-10-13 08:08:00,
2013-10-13 04:13:00,51.7,48.3,30.25,South,175,3.5,3.5,88,0.00,CLR,,0.00,WeatherDisplay:10.37,2013-10-13 08:13:00,
2013-10-13 04:18:00,51.5,48.1,30.25,ESE,102,3.0,3.0,88,0.00,CLR,,0.00,WeatherDisplay:10.37,2013-10-13 08:18:00,
2013-10-13 04:23:00,51.4,48.0,30.25,East,98,2.3,2.3,88,0.00,CLR,,0.00,WeatherDisplay:10.37,2013-10-13 08:23:00,
2013-10-13 04:28:00,51.4,48.0,30.25,ENE,69,2.0,2.0,88,0.00,CLR,,0.00,WeatherDisplay:10.37,2013-10-13 08:28:00,
2013-10-13 04:33:00,51.2,47.8,30.25,ESE,108,6.9,6.9,88,0.00,CLR,,0.00,WeatherDisplay:10.37,2013-10-13 08:33:00,
2013-10-13 04:38:00,51.0,47.6,30.25,East,94,2.3,2.3,88,0.00,CLR,,0.00,WeatherDisplay:10.37,2013-10-13 08:38:00,
2013-10-13 04:43:00,50.9,47.8,30.25,ENE,75,2.3,2.3,89,0.00,CLR,,0.00,WeatherDisplay:10.37,2013-10-13 08:43:00,
2013-10-13 04:48:00,50.9,47.8,30.25,ESE,106,2.3,2.3,89,0.00,CLR,,0.00,WeatherDisplay:10.37,2013-10-13 08:48:00,
2013-10-13 04:53:00,51.0,47.9,30.25,NE,56,2.3,2.3,89,0.00,CLR,,0.00,WeatherDisplay:10.37,2013-10-13 08:53:00,
2013-10-13 04:58:00,50.9,47.8,30.25,ESE,104,2.3,2.3,89,0.00,CLR,,0.00,WeatherDisplay:10.37,2013-10-13 08:58:00,
2013-10-13 05:03:00,51.0,47.9,30.25,SE,128,3.5,3.5,89,0.00,CLR,,0.00,WeatherDisplay:10.37,2013-10-13 09:03:00,
2013-10-13 05:08:00,51.0,47.9,30.25,ENE,70,3.5,3.5,89,0.00,CLR,,0.00,WeatherDisplay:10.37,2013-10-13 09:08:00,
2013-10-13 05:13:00,51.2,48.1,30.25,NE,49,5.8,5.8,89,0.00,CLR,,0.00,WeatherDisplay:10.37,2013-10-13 09:13:00,
2013-10-13 05:18:00,51.0,47.9,30.25,ESE,123,3.5,3.5,89,0.00,CLR,,0.00,WeatherDisplay:10.37,2013-10-13 09:18:00,
2013-10-13 05:23:00,50.9,47.8,30.26,ESE,118,1.1,1.1,89,0.00,CLR,,0.00,WeatherDisplay:10.37,2013-10-13 09:23:00,
2013-10-13 05:28:00,50.7,47.6,30.25,ESE,108,3.5,3.5,89,0.00,CLR,,0.00,WeatherDisplay:10.37,2013-10-13 09:28:00,
2013-10-13 05:33:00,50.9,47.8,30.25,SE,136,3.5,3.5,89,0.00,CLR,,0.00,WeatherDisplay:10.37,2013-10-13 09:33:00,
2013-10-13 05:38:00,51.0,47.9,30.26,East,94,1.1,1.1,89,0.00,CLR,,0.00,WeatherDisplay:10.37,2013-10-13 09:38:00,
2013-10-13 05:43:00,50.8,47.7,30.26,ESE,117,3.0,3.0,89,0.00,CLR,,0.00,WeatherDisplay:10.37,2013-10-13 09:43:00,
2013-10-13 05:48:00,50.9,47.8,30.26,SE,141,2.3,2.3,89,0.00,CLR,,0.00,WeatherDisplay:10.37,2013-10-13 09:48:00,
2013-10-13 05:53:00,51.0,47.9,30.26,ESE,111,4.6,4.6,89,0.00,CLR,,0.00,WeatherDisplay:10.37,2013-10-13 09:53:00,
2013-10-13 05:58:00,51.1,48.0,30.26,SE,140,4.0,4.0,89,0.00,CLR,,0.00,WeatherDisplay:10.37,2013-10-13 09:58:00,
2013-10-13 06:03:00,51.2,48.1,30.26,SE,136,5.8,5.8,89,0.00,CLR,,0.00,WeatherDisplay:10.37,2013-10-13 10:03:00,
2013-10-13 06:08:00,51.0,47.6,30.26,South,183,3.5,3.5,88,0.00,CLR,,0.00,WeatherDisplay:10.37,2013-10-13 10:08:00,
2013-10-13 06:13:00,51.0,47.9,30.26,ESE,116,3.5,3.5,89,0.00,CLR,,0.00,WeatherDisplay:10.37,2013-10-13 10:13:00,
2013-10-13 06:18:00,50.9,47.8,30.26,East,96,4.0,4.0,89,0.00,CLR,,0.00,WeatherDisplay:10.37,2013-10-13 10:18:00,
2013-10-13 06:23:00,51.0,47.9,30.26,East,91,2.3,2.3,89,0.00,CLR,,0.00,WeatherDisplay:10.37,2013-10-13 10:23:00,
2013-10-13 06:28:00,51.1,47.7,30.26,SSE,147,3.5,3.5,88,0.00,CLR,,0.00,WeatherDisplay:10.37,2013-10-13 10:28:00,
2013-10-13 06:33:00,51.0,47.6,30.26,ESE,103,3.5,3.5,88,0.00,CLR,,0.00,WeatherDisplay:10.37,2013-10-13 10:33:00,
2013-10-13 06:38:00,50.9,47.8,30.26,SE,146,8.0,8.0,89,0.00,CLR,,0.00,WeatherDisplay:10.37,2013-10-13 10:38:00,
2013-10-13 06:43:00,51.0,47.6,30.26,East,86,4.6,4.6,88,0.00,CLR,,0.00,WeatherDisplay:10.37,2013-10-13 10:43:00,
2013-10-13 06:48:00,50.9,47.5,30.26,ESE,112,3.0,3.0,88,0.00,CLR,,0.00,WeatherDisplay:10.37,2013-10-13 10:48:00,
2013-10-13 06:53:00,51.0,47.6,30.27,SE,138,3.5,3.5,88,0.00,CLR,,0.00,WeatherDisplay:10.37,2013-10-13 10:53:00,
2013-10-13 06:58:00,50.8,47.4,30.27,ESE,123,7.0,7.0,88,0.00,CLR,,0.00,WeatherDisplay:10.37,2013-10-13 10:58:00,
2013-10-13 07:03:00,50.8,47.7,30.26,East,91,4.6,4.6,89,0.00,SCT,,0.00,WeatherDisplay:10.37,2013-10-13 11:03:00,
2013-10-13 07:08:00,50.7,47.6,30.26,ESE,120,3.5,3.5,89,0.00,SCT,,0.00,WeatherDisplay:10.37,2013-10-13 11:08:00,
2013-10-13 07:13:00,50.6,47.5,30.26,SSE,153,3.5,3.5,89,0.00,SCT,,0.00,WeatherDisplay:10.37,2013-10-13 11:13:00,
2013-10-13 07:18:00,50.6,47.5,30.27,East,79,3.5,3.5,89,0.00,SCT,,0.00,WeatherDisplay:10.37,2013-10-13 11:18:00,
2013-10-13 07:23:00,50.7,47.6,30.27,SE,139,3.5,3.5,89,0.00,SCT,,0.00,WeatherDisplay:10.37,2013-10-13 11:23:00,
2013-10-13 07:28:00,50.8,47.7,30.27,SE,137,3.5,3.5,89,0.00,SCT,,0.00,WeatherDisplay:10.37,2013-10-13 11:28:00,
2013-10-13 07:33:00,50.9,47.8,30.27,ESE,116,3.5,3.5,89,0.00,SCT,,0.00,WeatherDisplay:10.37,2013-10-13 11:33:00,
2013-10-13 07:38:00,51.1,48.0,30.27,ESE,110,3.5,3.5,89,0.00,SCT,,0.00,WeatherDisplay:10.37,2013-10-13 11:38:00,
2013-10-13 07:43:00,51.2,47.8,30.27,ESE,105,2.3,2.3,88,0.00,SCT,,0.00,WeatherDisplay:10.37,2013-10-13 11:43:00,
2013-10-13 07:48:00,51.4,48.0,30.28,East,99,2.3,2.3,88,0.00,SCT,,0.00,WeatherDisplay:10.37,2013-10-13 11:48:00,
2013-10-13 07:53:00,51.6,48.2,30.28,East,82,2.3,2.3,88,0.00,SCT,,0.00,WeatherDisplay:10.37,2013-10-13 11:53:00,
2013-10-13 07:58:00,51.7,48.3,30.28,SSW,193,4.0,4.0,88,0.00,SCT,,0.00,WeatherDisplay:10.37,2013-10-13 11:58:00,
2013-10-13 08:03:00,52.1,48.3,30.28,SSE,148,4.6,4.6,87,0.00,SCT,,0.00,WeatherDisplay:10.37,2013-10-13 12:03:00,
2013-10-13 08:08:00,52.9,49.1,30.28,SE,146,1.1,1.1,87,0.00,SCT,,0.00,WeatherDisplay:10.37,2013-10-13 12:08:00,
2013-10-13 08:13:00,53.4,49.0,30.28,East,87,3.5,3.5,85,0.00,SCT,,0.00,WeatherDisplay:10.37,2013-10-13 12:13:00,
2013-10-13 08:18:00,53.9,49.2,30.28,East,101,3.5,3.5,84,0.00,SCT,,0.00,WeatherDisplay:10.37,2013-10-13 12:18:00,
2013-10-13 08:23:00,54.3,49.2,30.28,SSE,155,3.5,3.5,83,0.00,SCT,,0.00,WeatherDisplay:10.37,2013-10-13 12:23:00,
2013-10-13 08:28:00,54.7,49.6,30.28,South,174,8.0,8.0,83,0.00,SCT,,0.00,WeatherDisplay:10.37,2013-10-13 12:28:00,
2013-10-13 08:33:00,54.8,49.7,30.28,SE,140,6.9,6.9,83,0.00,SCT,,0.00,WeatherDisplay:10.37,2013-10-13 12:33:00,
2013-10-13 08:38:00,55.2,49.8,30.27,ESE,104,5.8,5.8,82,0.00,SCT,,0.00,WeatherDisplay:10.37,2013-10-13 12:38:00,
2013-10-13 08:43:00,55.5,49.8,30.27,SSE,153,6.0,6.0,81,0.00,SCT,,0.00,WeatherDisplay:10.37,2013-10-13 12:43:00,
2013-10-13 08:48:00,55.8,50.1,30.27,East,93,3.5,3.5,81,0.00,SCT,,0.00,WeatherDisplay:10.37,2013-10-13 12:48:00,
2013-10-13 08:53:00,56.1,50.0,30.27,SSE,160,8.1,8.1,80,0.00,SCT,,0.00,WeatherDisplay:10.37,2013-10-13 12:53:00,
2013-10-13 08:58:00,56.2,50.1,30.27,SSE,162,3.5,3.5,80,0.00,SCT,,0.00,WeatherDisplay:10.37,2013-10-13 12:58:00,
2013-10-13 09:03:00,56.4,50.0,30.28,SSE,148,6.9,6.9,79,0.00,CLR,,0.00,WeatherDisplay:10.37,2013-10-13 13:03:00,
2013-10-13 09:08:00,56.6,50.2,30.28,SSE,168,3.5,3.5,79,0.00,CLR,,0.00,WeatherDisplay:10.37,2013-10-13 13:08:00,
2013-10-13 09:13:00,56.9,50.5,30.28,SSE,162,5.8,5.8,79,0.00,CLR,,0.00,WeatherDisplay:10.37,2013-10-13 13:13:00,
2013-10-13 09:18:00,57.0,50.2,30.28,SE,133,8.1,8.1,78,0.00,CLR,,0.00,WeatherDisplay:10.37,2013-10-13 13:18:00,
2013-10-13 09:23:00,57.4,50.6,30.28,SSE,162,8.0,8.0,78,0.00,CLR,,0.00,WeatherDisplay:10.37,2013-10-13 13:23:00,
2013-10-13 09:28:00,57.5,50.7,30.29,SSE,153,3.5,3.5,78,0.00,CLR,,0.00,WeatherDisplay:10.37,2013-10-13 13:28:00,
2013-10-13 09:33:00,57.8,50.6,30.29,SSE,158,3.5,3.5,77,0.00,CLR,,0.00,WeatherDisplay:10.37,2013-10-13 13:33:00,
2013-10-13 09:38:00,58.2,50.7,30.29,South,185,6.9,6.9,76,0.00,CLR,,0.00,WeatherDisplay:10.37,2013-10-13 13:38:00,
2013-10-13 09:43:00,58.2,50.3,30.29,South,181,11.5,11.5,75,0.00,CLR,,0.00,WeatherDisplay:10.37,2013-10-13 13:43:00,
2013-10-13 09:48:00,58.2,50.7,30.29,SSE,147,11.5,11.5,76,0.00,CLR,,0.00,WeatherDisplay:10.37,2013-10-13 13:48:00,
2013-10-13 09:53:00,58.2,50.0,30.29,SSW,209,13.8,13.8,74,0.00,CLR,,0.00,WeatherDisplay:10.37,2013-10-13 13:53:00,
2013-10-13 09:58:00,58.4,50.9,30.29,South,180,4.0,4.0,76,0.00,CLR,,0.00,WeatherDisplay:10.37,2013-10-13 13:58:00,
2013-10-13 10:03:00,59.0,51.1,30.29,West,278,4.6,4.6,75,0.00,CLR,,0.00,WeatherDisplay:10.37,2013-10-13 14:03:00,
2013-10-13 10:08:00,59.0,50.7,30.29,SW,223,3.0,3.0,74,0.00,CLR,,0.00,WeatherDisplay:10.37,2013-10-13 14:08:00,
2013-10-13 10:14:00,59.0,50.7,30.29,SSE,162,8.1,8.1,74,0.00,CLR,,0.00,WeatherDisplay:10.37,2013-10-13 14:14:00,
2013-10-13 10:19:00,59.3,50.6,30.29,SSE,153,11.5,11.5,73,0.00,CLR,,0.00,WeatherDisplay:10.37,2013-10-13 14:19:00,
2013-10-13 10:24:00,59.5,50.8,30.29,SE,140,5.8,5.8,73,0.00,CLR,,0.00,WeatherDisplay:10.37,2013-10-13 14:24:00,
2013-10-13 10:29:00,59.7,51.4,30.29,WSW,253,3.5,3.5,74,0.00,CLR,,0.00,WeatherDisplay:10.37,2013-10-13 14:29:00,
2013-10-13 10:34:00,59.9,50.5,30.29,South,179,11.5,11.5,71,0.00,CLR,,0.00,WeatherDisplay:10.37,2013-10-13 14:34:00,
2013-10-13 10:39:00,60.1,51.0,30.29,ESE,117,6.0,6.0,72,0.00,CLR,,0.00,WeatherDisplay:10.37,2013-10-13 14:39:00,
2013-10-13 10:44:00,60.1,50.3,30.29,SSE,165,5.8,5.8,70,0.00,CLR,,0.00,WeatherDisplay:10.37,2013-10-13 14:44:00,
2013-10-13 10:49:00,60.4,51.0,30.29,SSE,150,6.0,6.0,71,0.00,CLR,,0.00,WeatherDisplay:10.37,2013-10-13 14:49:00,
2013-10-13 10:54:00,60.5,50.3,30.29,SE,146,7.0,7.0,69,0.00,CLR,,0.00,WeatherDisplay:10.37,2013-10-13 14:54:00,
2013-10-13 10:59:00,60.6,50.4,30.29,SE,141,10.4,10.4,69,0.00,CLR,,0.00,WeatherDisplay:10.37,2013-10-13 14:59:00,
2013-10-13 11:04:00,61.0,50.4,30.29,SE,131,11.5,11.5,68,0.00,CLR,,0.00,WeatherDisplay:10.37,2013-10-13 15:04:00,
2013-10-13 11:09:00,61.1,50.5,30.29,East,91,6.9,6.9,68,0.00,CLR,,0.00,WeatherDisplay:10.37,2013-10-13 15:09:00,
2013-10-13 11:14:00,61.3,50.2,30.29,SSE,168,4.6,4.6,67,0.00,CLR,,0.00,WeatherDisplay:10.37,2013-10-13 15:14:00,
2013-10-13 11:19:00,61.6,50.5,30.29,West,278,8.1,8.1,67,0.00,CLR,,0.00,WeatherDisplay:10.37,2013-10-13 15:19:00,
2013-10-13 11:24:00,61.4,50.7,30.28,WNW,293,5.0,5.0,68,0.00,CLR,,0.00,WeatherDisplay:10.37,2013-10-13 15:24:00,
2013-10-13 11:29:00,61.7,50.6,30.28,SSE,150,8.0,8.0,67,0.00,CLR,,0.00,WeatherDisplay:10.37,2013-10-13 15:29:00,
2013-10-13 11:30:00,69.5,50.0,30.17,SW,216,3.0,11.0,50,0.00,CLR,,0.00,WeatherDisplay:10.37,2013-10-13 15:30:00,
2013-10-13 11:34:00,62.1,51.0,30.28,ESE,122,8.1,8.1,67,0.00,CLR,,0.00,WeatherDisplay:10.37,2013-10-13 15:34:00,
2013-10-13 11:39:00,62.3,50.0,30.29,SSW,196,11.5,11.5,64,0.00,CLR,,0.00,WeatherDisplay:10.37,2013-10-13 15:39:00,
2013-10-13 11:44:00,62.5,49.7,30.28,SE,145,11.5,11.5,63,0.00,CLR,,0.00,WeatherDisplay:10.37,2013-10-13 15:44:00,
2013-10-13 11:49:00,62.7,49.9,30.28,SE,128,6.9,6.9,63,0.00,CLR,,0.00,WeatherDisplay:10.37,2013-10-13 15:49:00,
2013-10-13 11:54:00,63.0,50.2,30.28,SE,145,7.0,7.0,63,0.00,CLR,,0.00,WeatherDisplay:10.37,2013-10-13 15:54:00,
2013-10-13 11:59:00,62.8,49.6,30.28,SW,236,12.7,12.7,62,0.00,CLR,,0.00,WeatherDisplay:10.37,2013-10-13 15:59:00,
2013-10-13 12:04:00,63.2,50.4,30.28,SE,137,9.2,9.2,63,0.00,CLR,,0.00,WeatherDisplay:10.37,2013-10-13 16:04:00,
2013-10-13 12:05:00,68.6,49.7,30.17,South,170,3.0,9.0,51,0.00,CLR,,0.00,WeatherDisplay:10.37,2013-10-13 16:05:00,
2013-10-13 12:09:00,63.4,51.0,30.28,ESE,115,5.8,5.8,64,0.00,CLR,,0.00,WeatherDisplay:10.37,2013-10-13 16:09:00,
2013-10-13 12:10:00,68.6,49.7,30.17,SSE,158,3.0,9.0,51,0.00,CLR,,0.00,WeatherDisplay:10.37,2013-10-13 16:10:00,
2013-10-13 12:14:00,63.6,51.2,30.27,South,185,5.8,5.8,64,0.00,CLR,,0.00,WeatherDisplay:10.37,2013-10-13 16:14:00,
2013-10-13 12:15:00,68.6,49.7,30.17,SSE,158,3.0,9.0,51,0.00,CLR,,0.00,WeatherDisplay:10.37,2013-10-13 16:15:00,
2013-10-13 12:19:00,63.7,50.4,30.26,ESE,121,6.9,6.9,62,0.00,CLR,,0.00,WeatherDisplay:10.37,2013-10-13 16:19:00,
2013-10-13 12:20:00,68.6,49.7,30.17,SSE,158,3.0,9.0,51,0.00,CLR,,0.00,WeatherDisplay:10.37,2013-10-13 16:20:00,
2013-10-13 12:24:00,63.9,49.7,30.26,SSE,167,8.1,8.1,60,0.00,CLR,,0.00,WeatherDisplay:10.37,2013-10-13 16:24:00,
2013-10-13 12:25:00,68.6,49.7,30.17,SSE,158,3.0,9.0,51,0.00,CLR,,0.00,WeatherDisplay:10.37,2013-10-13 16:25:00,
2013-10-13 12:29:00,63.8,49.6,30.26,South,170,11.5,11.5,60,0.00,CLR,,0.00,WeatherDisplay:10.37,2013-10-13 16:29:00,
2013-10-13 12:30:00,68.6,49.7,30.17,SSE,158,3.0,9.0,51,0.00,CLR,,0.00,WeatherDisplay:10.37,2013-10-13 16:30:00,
2013-10-13 12:34:00,64.2,48.6,30.25,SSE,148,10.4,10.4,57,0.00,CLR,,0.00,WeatherDisplay:10.37,2013-10-13 16:34:00,
2013-10-13 12:35:00,67.5,50.3,30.17,SSE,158,3.0,8.0,54,0.00,CLR,,0.00,WeatherDisplay:10.37,2013-10-13 16:35:00,
2013-10-13 12:39:00,64.1,48.5,30.25,SSE,158,10.4,10.4,57,0.00,CLR,,0.00,WeatherDisplay:10.37,2013-10-13 16:39:00,
2013-10-13 12:40:00,67.5,50.3,30.17,SSE,158,3.0,8.0,54,0.00,CLR,,0.00,WeatherDisplay:10.37,2013-10-13 16:40:00,
2013-10-13 12:44:00,64.7,49.6,30.25,ENE,76,4.6,4.6,58,0.00,CLR,,0.00,WeatherDisplay:10.37,2013-10-13 16:44:00,
2013-10-13 12:45:00,67.5,50.3,30.17,SSE,158,3.0,8.0,54,0.00,CLR,,0.00,WeatherDisplay:10.37,2013-10-13 16:45:00,
2013-10-13 12:49:00,65.3,49.2,30.25,SSE,167,8.1,8.1,56,0.00,CLR,,0.00,WeatherDisplay:10.37,2013-10-13 16:49:00,
2013-10-13 12:50:00,67.5,50.3,30.17,SSE,158,3.0,8.0,54,0.00,CLR,,0.00,WeatherDisplay:10.37,2013-10-13 16:50:00,
2013-10-13 12:54:00,65.2,49.1,30.24,South,191,7.0,7.0,56,0.00,CLR,,0.00,WeatherDisplay:10.37,2013-10-13 16:54:00,
2013-10-13 12:55:00,67.5,50.3,30.17,SSE,158,3.0,8.0,54,0.00,CLR,,0.00,WeatherDisplay:10.37,2013-10-13 16:55:00,
2013-10-13 12:59:00,65.2,48.6,30.24,SSE,154,5.8,5.8,55,0.00,CLR,,0.00,WeatherDisplay:10.37,2013-10-13 16:59:00,
2013-10-13 13:00:00,67.5,50.3,30.17,SSE,158,3.0,8.0,54,0.00,CLR,,0.00,WeatherDisplay:10.37,2013-10-13 17:00:00,
2013-10-13 13:04:00,65.4,48.3,30.24,SSW,198,9.2,9.2,54,0.00,CLR,,0.00,WeatherDisplay:10.37,2013-10-13 17:04:00,
2013-10-13 13:05:00,65.0,49.9,30.18,SSE,158,1.0,5.0,58,0.00,CLR,,0.00,WeatherDisplay:10.37,2013-10-13 17:05:00,
2013-10-13 13:09:00,65.8,49.2,30.23,South,181,5.0,5.0,55,0.00,CLR,,0.00,WeatherDisplay:10.37,2013-10-13 17:09:00,
2013-10-13 13:10:00,65.0,49.9,30.18,SSE,158,1.0,5.0,58,0.00,CLR,,0.00,WeatherDisplay:10.37,2013-10-13 17:10:00,
2013-10-13 13:14:00,65.9,49.3,30.23,East,101,11.5,11.5,55,0.00,CLR,,0.00,WeatherDisplay:10.37,2013-10-13 17:14:00,
2013-10-13 13:15:00,65.0,49.9,30.18,SSE,158,1.0,5.0,58,0.00,CLR,,0.00,WeatherDisplay:10.37,2013-10-13 17:15:00,
2013-10-13 13:19:00,66.0,49.4,30.23,SSE,164,5.8,5.8,55,0.00,CLR,,0.00,WeatherDisplay:10.37,2013-10-13 17:19:00,
2013-10-13 13:20:00,65.0,49.9,30.18,SSE,158,1.0,5.0,58,0.00,CLR,,0.00,WeatherDisplay:10.37,2013-10-13 17:20:00,
2013-10-13 13:24:00,66.2,49.1,30.23,SSW,207,6.9,6.9,54,0.00,CLR,,0.00,WeatherDisplay:10.37,2013-10-13 17:24:00,
2013-10-13 13:25:00,65.0,49.9,30.18,SSE,158,1.0,5.0,58,0.00,CLR,,0.00,WeatherDisplay:10.37,2013-10-13 17:25:00,
2013-10-13 13:29:00,66.6,49.4,30.22,SSW,204,10.4,10.4,54,0.00,CLR,,0.00,WeatherDisplay:10.37,2013-10-13 17:29:00,
2013-10-13 13:30:00,65.0,49.9,30.18,SSE,158,1.0,5.0,58,0.00,CLR,,0.00,WeatherDisplay:10.37,2013-10-13 17:30:00,
2013-10-13 13:34:00,66.8,49.1,30.22,SW,235,9.2,9.2,53,0.00,CLR,,0.00,WeatherDisplay:10.37,2013-10-13 17:34:00,
2013-10-13 13:35:00,62.7,49.1,30.18,SSE,158,1.0,7.0,61,0.00,CLR,,0.00,WeatherDisplay:10.37,2013-10-13 17:35:00,
2013-10-13 13:39:00,66.8,49.6,30.22,SW,234,5.0,5.0,54,0.00,CLR,,0.00,WeatherDisplay:10.37,2013-10-13 17:39:00,
2013-10-13 13:40:00,62.7,49.1,30.18,SSE,158,1.0,7.0,61,0.00,CLR,,0.00,WeatherDisplay:10.37,2013-10-13 17:40:00,
2013-10-13 13:44:00,66.9,49.2,30.22,SW,219,2.0,8.0,53,0.00,CLR,,0.00,WeatherDisplay:10.37,2013-10-13 17:44:00,
2013-10-13 13:45:00,62.7,49.1,30.18,SSE,158,1.0,7.0,61,0.00,CLR,,0.00,WeatherDisplay:10.37,2013-10-13 17:45:00,
2013-10-13 13:49:00,67.3,49.6,30.21,South,185,3.0,10.0,53,0.00,CLR,,0.00,WeatherDisplay:10.37,2013-10-13 17:49:00,
2013-10-13 13:50:00,62.7,49.1,30.18,SSE,158,1.0,7.0,61,0.00,CLR,,0.00,WeatherDisplay:10.37,2013-10-13 17:50:00,
2013-10-13 13:54:00,67.2,48.9,30.21,South,189,6.0,10.0,52,0.00,CLR,,0.00,WeatherDisplay:10.37,2013-10-13 17:54:00,
2013-10-13 13:55:00,62.7,49.1,30.18,SSE,158,1.0,7.0,61,0.00,CLR,,0.00,WeatherDisplay:10.37,2013-10-13 17:55:00,
2013-10-13 13:59:00,67.1,48.9,30.21,South,178,5.0,10.0,52,0.00,CLR,,0.00,WeatherDisplay:10.37,2013-10-13 17:59:00,
2013-10-13 14:00:00,62.7,49.1,30.18,SSE,158,1.0,7.0,61,0.00,CLR,,0.00,WeatherDisplay:10.37,2013-10-13 18:00:00,
2013-10-13 14:04:00,67.4,49.7,30.21,South,171,3.0,9.0,53,0.00,CLR,,0.00,WeatherDisplay:10.37,2013-10-13 18:04:00,
2013-10-13 14:05:00,62.8,49.1,30.18,SSE,158,2.0,7.0,61,0.00,CLR,,0.00,WeatherDisplay:10.37,2013-10-13 18:05:00,
2013-10-13 14:09:00,67.4,49.2,30.21,South,183,5.0,10.0,52,0.00,CLR,,0.00,WeatherDisplay:10.37,2013-10-13 18:09:00,
2013-10-13 14:10:00,62.8,49.1,30.18,SSE,158,2.0,7.0,61,0.00,CLR,,0.00,WeatherDisplay:10.37,2013-10-13 18:10:00,
2013-10-13 14:14:00,67.3,50.1,30.21,SSW,210,3.0,12.0,54,0.00,CLR,,0.00,WeatherDisplay:10.37,2013-10-13 18:14:00,
2013-10-13 14:15:00,62.8,49.1,30.18,SSE,158,2.0,7.0,61,0.00,CLR,,0.00,WeatherDisplay:10.37,2013-10-13 18:15:00,
2013-10-13 14:19:00,67.3,50.1,30.21,SW,223,3.0,8.0,54,0.00,CLR,,0.00,WeatherDisplay:10.37,2013-10-13 18:19:00,
2013-10-13 14:20:00,62.8,49.1,30.18,SSE,158,2.0,7.0,61,0.00,CLR,,0.00,WeatherDisplay:10.37,2013-10-13 18:20:00,
2013-10-13 14:25:00,67.2,49.5,30.20,SE,127,5.8,5.8,53,0.00,CLR,,0.00,WeatherDisplay:10.37,2013-10-13 18:25:00,
2013-10-13 14:30:00,67.3,50.6,30.20,SSE,166,9.2,9.2,55,0.00,CLR,,0.00,WeatherDisplay:10.37,2013-10-13 18:30:00,
2013-10-13 14:35:00,67.5,50.3,30.20,South,174,4.6,4.6,54,0.00,CLR,,0.00,WeatherDisplay:10.37,2013-10-13 18:35:00,
2013-10-13 14:40:00,67.4,50.2,30.20,SE,138,8.1,8.1,54,0.00,CLR,,0.00,WeatherDisplay:10.37,2013-10-13 18:40:00,
2013-10-13 14:45:00,67.5,51.2,30.20,SSE,154,3.5,3.5,56,0.00,CLR,,0.00,WeatherDisplay:10.37,2013-10-13 18:45:00,
2013-10-13 14:50:00,67.6,50.9,30.20,SE,124,9.2,9.2,55,0.00,CLR,,0.00,WeatherDisplay:10.37,2013-10-13 18:50:00,
2013-10-13 14:55:00,67.7,50.9,30.20,ENE,77,4.6,4.6,55,0.00,CLR,,0.00,WeatherDisplay:10.37,2013-10-13 18:55:00,
2013-10-13 15:00:00,68.0,51.2,30.19,SSE,152,10.4,10.4,55,0.00,CLR,,0.00,WeatherDisplay:10.37,2013-10-13 19:00:00,
2013-10-13 15:05:00,68.2,51.4,30.19,SW,225,5.8,5.8,55,0.00,CLR,,0.00,WeatherDisplay:10.37,2013-10-13 19:05:00,
2013-10-13 15:10:00,68.6,52.3,30.19,SSW,203,4.6,4.6,56,0.00,CLR,,0.00,WeatherDisplay:10.37,2013-10-13 19:10:00,
2013-10-13 15:15:00,69.0,51.2,30.19,South,186,8.1,8.1,53,0.00,CLR,,0.00,WeatherDisplay:10.37,2013-10-13 19:15:00,
2013-10-13 15:20:00,69.2,50.8,30.19,South,170,8.1,8.1,52,0.00,CLR,,0.00,WeatherDisplay:10.37,2013-10-13 19:20:00,
2013-10-13 15:25:00,69.2,51.3,30.19,WSW,245,10.0,10.0,53,0.00,CLR,,0.00,WeatherDisplay:10.37,2013-10-13 19:25:00,
2013-10-13 15:30:00,69.2,51.3,30.19,SSE,158,4.6,4.6,53,0.00,CLR,,0.00,WeatherDisplay:10.37,2013-10-13 19:30:00,
2013-10-13 15:35:00,69.5,51.6,30.19,SSW,211,3.5,3.5,53,0.00,CLR,,0.00,WeatherDisplay:10.37,2013-10-13 19:35:00,
2013-10-13 15:40:00,69.5,50.0,30.19,South,171,4.6,4.6,50,0.00,CLR,,0.00,WeatherDisplay:10.37,2013-10-13 19:40:00,
2013-10-13 15:45:00,69.5,51.1,30.19,WNW,298,5.8,5.8,52,0.00,CLR,,0.00,WeatherDisplay:10.37,2013-10-13 19:45:00,
2013-10-13 15:50:00,69.7,51.3,30.18,West,279,4.6,4.6,52,0.00,CLR,,0.00,WeatherDisplay:10.37,2013-10-13 19:50:00,
2013-10-13 15:55:00,69.7,50.8,30.19,ESE,116,5.8,5.8,51,0.00,CLR,,0.00,WeatherDisplay:10.37,2013-10-13 19:55:00,
2013-10-13 16:00:00,69.6,50.7,30.19,ESE,122,5.8,5.8,51,0.00,CLR,,0.00,WeatherDisplay:10.37,2013-10-13 20:00:00,
2013-10-13 16:05:00,69.8,50.3,30.19,SE,134,4.6,4.6,50,0.00,CLR,,0.00,WeatherDisplay:10.37,2013-10-13 20:05:00,
2013-10-13 16:10:00,59.9,49.3,30.19,SE,135,2.0,11.0,68,0.00,CLR,,0.00,WeatherDisplay:10.37,2013-10-13 20:10:00,
2013-10-13 16:15:00,59.9,49.3,30.19,SE,135,2.0,11.0,68,0.00,CLR,,0.00,WeatherDisplay:10.37,2013-10-13 20:15:00,
2013-10-13 16:20:00,59.9,49.3,30.19,SE,135,2.0,11.0,68,0.00,CLR,,0.00,WeatherDisplay:10.37,2013-10-13 20:20:00,
2013-10-13 16:25:00,59.9,49.3,30.19,SE,135,2.0,11.0,68,0.00,CLR,,0.00,WeatherDisplay:10.37,2013-10-13 20:25:00,
2013-10-13 16:30:00,59.9,49.3,30.19,SE,135,2.0,11.0,68,0.00,CLR,,0.00,WeatherDisplay:10.37,2013-10-13 20:30:00,
2013-10-13 16:35:00,59.0,48.8,30.19,SE,135,2.0,7.0,69,0.00,CLR,,0.00,WeatherDisplay:10.37,2013-10-13 20:35:00,
2013-10-13 16:40:00,59.0,48.8,30.19,SE,135,2.0,7.0,69,0.00,CLR,,0.00,WeatherDisplay:10.37,2013-10-13 20:40:00,
2013-10-13 16:45:00,59.0,48.8,30.19,SE,135,2.0,7.0,69,0.00,CLR,,0.00,WeatherDisplay:10.37,2013-10-13 20:45:00,
2013-10-13 16:50:00,59.0,48.8,30.19,SE,135,2.0,7.0,69,0.00,CLR,,0.00,WeatherDisplay:10.37,2013-10-13 20:50:00,
2013-10-13 16:55:00,59.0,48.8,30.19,SE,135,2.0,7.0,69,0.00,CLR,,0.00,WeatherDisplay:10.37,2013-10-13 20:55:00,
2013-10-13 17:00:00,59.0,48.8,30.19,SE,135,2.0,7.0,69,0.00,CLR,,0.00,WeatherDisplay:10.37,2013-10-13 21:00:00,
2013-10-13 21:50:00,58.3,48.9,30.20,SSE,168,6.9,6.9,71,0.00,CLR,,0.00,WeatherDisplay:10.37,2013-10-14 01:50:00,
2013-10-13 21:55:00,58.2,48.8,30.19,SSE,164,3.5,3.5,71,0.00,CLR,,0.00,WeatherDisplay:10.37,2013-10-14 01:55:00,
2013-10-13 22:00:00,58.1,48.7,30.19,SE,136,3.5,3.5,71,0.00,CLR,,0.00,WeatherDisplay:10.37,2013-10-14 02:00:00,
2013-10-13 22:05:00,58.1,48.7,30.20,SE,131,2.3,2.3,71,0.00,CLR,,0.00,WeatherDisplay:10.37,2013-10-14 02:05:00,
2013-10-13 22:10:00,58.0,48.6,30.20,ESE,112,2.3,2.3,71,0.00,CLR,,0.00,WeatherDisplay:10.37,2013-10-14 02:10:00,
2013-10-13 22:15:00,58.0,48.6,30.20,SE,138,3.0,3.0,71,0.00,CLR,,0.00,WeatherDisplay:10.37,2013-10-14 02:15:00,
2013-10-13 22:20:00,57.9,48.9,30.20,SSE,156,4.0,4.0,72,0.00,CLR,,0.00,WeatherDisplay:10.37,2013-10-14 02:20:00,
2013-10-13 22:25:00,57.8,48.8,30.19,SE,134,2.3,2.3,72,0.00,CLR,,0.00,WeatherDisplay:10.37,2013-10-14 02:25:00,
2013-10-13 22:30:00,57.8,48.8,30.20,SE,146,5.8,5.8,72,0.00,CLR,,0.00,WeatherDisplay:10.37,2013-10-14 02:30:00,
2013-10-13 22:35:00,57.8,48.8,30.19,East,99,5.8,5.8,72,0.00,CLR,,0.00,WeatherDisplay:10.37,2013-10-14 02:35:00,
2013-10-13 22:41:00,57.7,48.7,30.20,SE,143,4.6,4.6,72,0.00,CLR,,0.00,WeatherDisplay:10.37,2013-10-14 02:41:00,
2013-10-13 22:46:00,57.7,49.1,30.20,South,171,3.5,3.5,73,0.00,CLR,,0.00,WeatherDisplay:10.37,2013-10-14 02:46:00,
2013-10-13 22:51:00,57.7,49.1,30.20,ESE,114,3.5,3.5,73,0.00,CLR,,0.00,WeatherDisplay:10.37,2013-10-14 02:51:00,
2013-10-13 22:56:00,57.6,49.0,30.19,SSW,197,3.5,3.5,73,0.00,CLR,,0.00,WeatherDisplay:10.37,2013-10-14 02:56:00,
2013-10-13 23:01:00,57.7,49.1,30.19,SW,221,6.9,6.9,73,0.00,CLR,,0.00,WeatherDisplay:10.37,2013-10-14 03:01:00,
2013-10-13 23:06:00,57.6,49.0,30.19,SE,129,3.5,3.5,73,0.00,CLR,,0.00,WeatherDisplay:10.37,2013-10-14 03:06:00,
2013-10-13 23:11:00,57.5,48.9,30.19,South,174,4.6,4.6,73,0.00,CLR,,0.00,WeatherDisplay:10.37,2013-10-14 03:11:00,
2013-10-13 23:16:00,57.5,48.9,30.19,SSE,163,3.5,3.5,73,0.00,CLR,,0.00,WeatherDisplay:10.37,2013-10-14 03:16:00,
2013-10-13 23:21:00,57.4,48.8,30.19,South,171,3.5,3.5,73,0.00,CLR,,0.00,WeatherDisplay:10.37,2013-10-14 03:21:00,
2013-10-13 23:26:00,57.6,49.0,30.19,SE,126,4.6,4.6,73,0.00,CLR,,0.00,WeatherDisplay:10.37,2013-10-14 03:26:00,
2013-10-13 23:31:00,57.8,48.8,30.19,SSE,152,6.0,6.0,72,0.00,CLR,,0.00,WeatherDisplay:10.37,2013-10-14 03:31:00,
2013-10-13 23:36:00,58.1,49.1,30.19,SSE,165,4.0,4.0,72,0.00,CLR,,0.00,WeatherDisplay:10.37,2013-10-14 03:36:00,
2013-10-13 23:41:00,58.3,49.3,30.19,South,172,4.0,4.0,72,0.00,CLR,,0.00,WeatherDisplay:10.37,2013-10-14 03:41:00,
2013-10-13 23:46:00,58.6,49.2,30.19,WSW,237,3.5,3.5,71,0.00,CLR,,0.00,WeatherDisplay:10.37,2013-10-14 03:46:00,
2013-10-13 23:51:00,58.9,49.5,30.19,ESE,122,7.0,7.0,71,0.00,CLR,,0.00,WeatherDisplay:10.37,2013-10-14 03:51:00,
2013-10-13 23:56:00,59.1,49.3,30.19,SSW,201,10.4,10.4,70,0.00,CLR,,0.00,WeatherDisplay:10.37,2013-10-14 03:56:00,